createdAt,value
2023-02-15T00:00:18.684Z,38.33
2023-02-15T00:02:46.902Z,40.00
2023-02-15T00:05:15.184Z,40.20
2023-02-15T00:07:43.412Z,39.13
2023-02-15T00:10:13.237Z,41.27
2023-02-15T00:12:41.474Z,40.47
2023-02-15T00:15:12.418Z,38.97
2023-02-15T00:17:40.604Z,40.03
2023-02-15T00:20:09.749Z,37.53
2023-02-15T00:22:38.017Z,38.43
2023-02-15T00:25:06.942Z,37.60
2023-02-15T00:27:35.762Z,39.73
2023-02-15T00:30:05.113Z,36.50
2023-02-15T00:32:34.866Z,38.17
2023-02-15T00:35:04.081Z,38.23
2023-02-15T00:37:32.449Z,37.60
2023-02-15T00:40:00.664Z,37.73
2023-02-15T00:42:29.037Z,37.17
2023-02-15T00:44:57.252Z,36.47
2023-02-15T00:47:26.487Z,39.40
2023-02-15T00:49:56.117Z,38.20
2023-02-15T00:52:24.393Z,39.70
2023-02-15T00:54:52.567Z,39.27
2023-02-15T00:57:20.783Z,39.43
2023-02-15T00:59:49.479Z,39.17
2023-02-15T01:02:17.698Z,39.27
2023-02-15T01:04:48.588Z,39.77
2023-02-15T01:07:19.422Z,39.67
2023-02-15T01:09:47.676Z,38.63
2023-02-15T01:12:16.184Z,38.90
2023-02-15T01:14:44.445Z,39.87
2023-02-15T01:17:12.659Z,40.13
2023-02-15T01:19:40.954Z,37.80
2023-02-15T01:22:09.270Z,38.23
2023-02-15T01:24:39.183Z,39.40
2023-02-15T01:27:07.382Z,39.13
2023-02-15T01:29:35.606Z,39.90
2023-02-15T01:32:04.196Z,38.40
2023-02-15T01:34:32.779Z,40.77
2023-02-15T01:37:01.105Z,40.57
2023-02-15T01:39:29.361Z,38.67
2023-02-15T01:41:59.746Z,39.17
2023-02-15T01:44:50.441Z,40.13
2023-02-15T01:47:22.420Z,37.67
2023-02-15T01:49:54.313Z,38.60
2023-02-15T01:52:22.728Z,38.70
2023-02-15T01:54:52.538Z,39.83
2023-02-15T01:57:26.140Z,37.87
2023-02-15T02:00:00.372Z,37.23
2023-02-15T02:02:29.876Z,36.30
2023-02-15T02:05:04.045Z,38.30
2023-02-15T02:07:36.943Z,37.90
2023-02-15T02:10:06.683Z,37.30
2023-02-15T02:12:38.045Z,37.47
2023-02-15T02:15:07.572Z,38.43
2023-02-15T02:17:47.693Z,38.83
2023-02-15T02:20:30.972Z,37.00
2023-02-15T02:23:18.145Z,38.07
2023-02-15T02:26:07.125Z,38.43
2023-02-15T02:29:01.272Z,36.23
2023-02-15T02:31:45.624Z,37.47
2023-02-15T02:34:19.305Z,35.40
2023-02-15T02:36:54.756Z,35.20
2023-02-15T02:39:33.454Z,37.97
2023-02-15T02:42:11.781Z,37.60
2023-02-15T02:44:45.400Z,36.57
2023-02-15T02:47:18.503Z,36.40
2023-02-15T02:49:48.109Z,35.33
2023-02-15T02:52:49.962Z,36.77
2023-02-15T02:55:22.879Z,36.33
2023-02-15T02:57:56.147Z,36.73
2023-02-15T03:00:26.674Z,36.73
2023-02-15T03:03:06.095Z,35.57
2023-02-15T03:05:40.231Z,34.73
2023-02-15T03:08:10.815Z,35.03
2023-02-15T03:10:41.297Z,35.53
2023-02-15T03:13:10.811Z,34.60
2023-02-15T03:15:59.125Z,34.33
2023-02-15T03:18:32.977Z,33.03
2023-02-15T03:21:04.856Z,34.93
2023-02-15T03:23:35.031Z,35.93
2023-02-15T03:26:07.212Z,37.63
2023-02-15T03:28:42.888Z,36.70
2023-02-15T03:31:14.157Z,37.77
2023-02-15T03:33:47.706Z,38.93
2023-02-15T03:36:24.343Z,40.17
2023-02-15T03:39:00.815Z,39.03
2023-02-15T03:41:34.249Z,35.70
2023-02-15T03:44:08.794Z,37.77
2023-02-15T03:46:44.634Z,36.93
2023-02-15T03:49:17.614Z,36.13
2023-02-15T03:51:50.057Z,39.00
2023-02-15T03:54:37.285Z,34.20
2023-02-15T03:57:23.810Z,35.20
2023-02-15T04:00:09.214Z,35.23
2023-02-15T04:02:48.848Z,34.53
2023-02-15T04:05:17.308Z,34.30
2023-02-15T04:07:46.976Z,35.17
2023-02-15T04:10:33.009Z,35.43
2023-02-15T04:13:01.240Z,34.87
2023-02-15T04:15:47.072Z,37.03
2023-02-15T04:18:16.598Z,37.70
2023-02-15T04:21:03.823Z,36.30
2023-02-15T04:23:50.970Z,36.07
2023-02-15T04:26:19.433Z,37.70
2023-02-15T04:28:47.657Z,35.17
2023-02-15T04:31:15.996Z,36.63
2023-02-15T04:33:44.780Z,36.57
2023-02-15T04:36:13.072Z,35.20
2023-02-15T04:38:42.675Z,38.07
2023-02-15T04:41:12.392Z,37.50
2023-02-15T04:43:40.928Z,39.20
2023-02-15T04:46:09.208Z,40.30
2023-02-15T04:48:37.822Z,40.27
2023-02-15T04:51:08.488Z,38.97
2023-02-15T04:53:36.730Z,37.03
2023-02-15T04:56:06.570Z,36.57
2023-02-15T04:58:36.072Z,39.87
2023-02-15T05:01:04.673Z,38.43
2023-02-15T05:03:32.935Z,37.97
2023-02-15T05:06:01.389Z,38.40
2023-02-15T05:08:29.800Z,37.90
2023-02-15T05:10:58.322Z,39.57
2023-02-15T05:13:27.999Z,37.53
2023-02-15T05:15:56.387Z,37.43
2023-02-15T05:18:24.608Z,38.27
2023-02-15T05:20:53.218Z,38.93
2023-02-15T05:23:21.525Z,36.67
2023-02-15T05:26:13.588Z,36.13
2023-02-15T05:28:43.201Z,35.00
2023-02-15T05:31:14.503Z,34.40
2023-02-15T05:33:43.497Z,33.13
2023-02-15T05:36:11.990Z,36.73
2023-02-15T05:38:40.955Z,35.43
2023-02-15T05:41:10.589Z,36.10
2023-02-15T05:43:39.953Z,35.47
2023-02-15T05:46:10.325Z,36.90
2023-02-15T05:48:39.090Z,33.70
2023-02-15T05:51:09.949Z,34.70
2023-02-15T05:53:40.108Z,35.93
2023-02-15T05:56:09.865Z,35.13
2023-02-15T05:58:42.261Z,35.93
2023-02-15T06:01:15.652Z,34.57
2023-02-15T06:03:43.976Z,34.00
2023-02-15T06:06:12.604Z,35.03
2023-02-15T06:08:40.820Z,37.57
2023-02-15T06:11:09.488Z,39.67
2023-02-15T06:13:38.982Z,37.97
2023-02-15T06:16:08.000Z,40.20
2023-02-15T06:18:37.684Z,40.10
2023-02-15T06:21:05.931Z,40.13
2023-02-15T06:23:34.163Z,40.10
2023-02-15T06:26:02.672Z,41.03
2023-02-15T06:28:31.049Z,38.93
2023-02-15T06:30:59.407Z,39.20
2023-02-15T06:33:27.705Z,39.00
2023-02-15T06:35:57.502Z,42.30
2023-02-15T06:38:25.772Z,38.53
2023-02-15T06:40:54.038Z,36.47
2023-02-15T06:43:22.338Z,36.60
2023-02-15T06:45:50.571Z,38.40
2023-02-15T06:48:18.811Z,36.77
2023-02-15T06:50:47.111Z,37.90
2023-02-15T06:53:16.781Z,39.60
2023-02-15T06:55:45.101Z,39.03
2023-02-15T06:58:13.357Z,37.10
2023-02-15T07:00:41.601Z,37.27
2023-02-15T07:03:10.215Z,37.17
2023-02-15T07:05:38.821Z,36.30
2023-02-15T07:08:07.065Z,36.53
2023-02-15T07:10:36.718Z,36.17
2023-02-15T07:13:04.082Z,39.07
2023-02-15T07:15:32.304Z,36.47
2023-02-15T07:18:00.664Z,36.10
2023-02-15T07:20:29.666Z,34.67
2023-02-15T07:22:57.906Z,35.40
2023-02-15T07:25:26.130Z,35.73
2023-02-15T07:27:59.534Z,35.63
2023-02-15T07:30:27.948Z,37.10
2023-02-15T07:33:15.150Z,35.43
2023-02-15T07:35:49.741Z,36.10
2023-02-15T07:38:18.209Z,36.03
2023-02-15T07:40:47.204Z,36.03
2023-02-15T07:43:16.827Z,37.60
2023-02-15T07:45:45.668Z,37.77
2023-02-15T07:48:13.877Z,36.83
2023-02-15T07:50:42.288Z,35.90
2023-02-15T07:53:10.595Z,36.17
2023-02-15T07:55:39.098Z,36.37
2023-02-15T07:58:07.345Z,36.47
2023-02-15T08:00:57.270Z,36.70
2023-02-15T08:03:27.744Z,37.40
2023-02-15T08:05:59.527Z,37.17
2023-02-15T08:08:34.368Z,36.33
2023-02-15T08:11:21.513Z,36.53
2023-02-15T08:13:57.561Z,36.00
2023-02-15T08:16:28.860Z,35.07
2023-02-15T08:18:58.377Z,34.70
2023-02-15T08:21:29.055Z,34.17
2023-02-15T08:23:58.014Z,34.47
2023-02-15T08:26:27.650Z,31.37
2023-02-15T08:28:56.249Z,32.03
2023-02-15T08:31:24.847Z,31.80
2023-02-15T08:33:56.372Z,32.70
2023-02-15T08:36:26.481Z,31.80
2023-02-15T08:38:55.151Z,32.07
2023-02-15T08:41:25.611Z,30.93
2023-02-15T08:43:55.744Z,30.87
2023-02-15T08:46:24.853Z,31.83
2023-02-15T08:48:54.932Z,31.17
2023-02-15T08:51:25.000Z,32.33
2023-02-15T08:53:55.180Z,31.63
2023-02-15T08:56:26.888Z,30.83
2023-02-15T08:58:55.677Z,31.67
2023-02-15T09:01:31.010Z,31.27
2023-02-15T09:04:02.000Z,30.30
2023-02-15T09:06:30.982Z,30.63
2023-02-15T09:08:59.461Z,31.43
2023-02-15T09:11:29.676Z,31.77
2023-02-15T09:14:00.136Z,29.73
2023-02-15T09:16:30.174Z,30.40
2023-02-15T09:19:02.118Z,30.97
2023-02-15T09:21:31.196Z,30.13
2023-02-15T09:24:01.692Z,28.53
2023-02-15T09:26:31.798Z,29.20
2023-02-15T09:29:02.466Z,28.47
2023-02-15T09:31:32.256Z,28.63
2023-02-15T09:34:03.167Z,26.43
2023-02-15T09:36:34.029Z,27.10
2023-02-15T09:39:08.758Z,27.83
2023-02-15T09:42:05.228Z,27.43
2023-02-15T09:44:52.413Z,26.13
2023-02-15T09:47:47.178Z,25.40
2023-02-15T09:50:22.864Z,25.60
2023-02-15T09:53:11.672Z,26.10
2023-02-15T09:55:53.395Z,25.53
2023-02-15T09:58:32.022Z,26.27
2023-02-15T10:01:06.258Z,25.67
2023-02-15T10:03:46.318Z,25.90
2023-02-15T10:06:34.804Z,26.87
2023-02-15T10:09:28.340Z,26.03
2023-02-15T10:12:12.082Z,27.00
2023-02-15T10:14:52.672Z,26.60
2023-02-15T10:17:32.872Z,26.27
2023-02-15T10:20:19.060Z,26.17
2023-02-15T10:23:04.530Z,26.87
2023-02-15T10:25:43.160Z,28.47
2023-02-15T10:28:22.176Z,27.77
2023-02-15T10:30:52.660Z,25.73
2023-02-15T10:33:36.125Z,26.13
2023-02-15T10:36:19.139Z,25.90
2023-02-15T10:38:54.410Z,25.90
2023-02-15T10:41:37.873Z,25.03
2023-02-15T10:44:21.741Z,25.07
2023-02-15T10:47:19.344Z,25.80
2023-02-15T10:50:12.129Z,24.60
2023-02-15T10:52:58.186Z,23.90
2023-02-15T10:55:41.915Z,24.50
2023-02-15T10:58:19.157Z,23.90
2023-02-15T11:00:52.024Z,25.33
2023-02-15T11:03:46.135Z,24.07
2023-02-15T11:06:17.927Z,24.23
2023-02-15T11:08:49.637Z,25.70
2023-02-15T11:11:28.275Z,24.77
2023-02-15T11:14:01.554Z,22.90
2023-02-15T11:16:34.347Z,24.13
2023-02-15T11:19:08.958Z,23.17
2023-02-15T11:21:41.569Z,23.50
2023-02-15T11:24:15.142Z,23.37
2023-02-15T11:26:48.280Z,22.53
2023-02-15T11:29:26.401Z,24.10
2023-02-15T11:31:57.586Z,22.20
2023-02-15T11:34:38.528Z,23.37
2023-02-15T11:37:10.914Z,23.17
2023-02-15T11:39:39.737Z,23.20
2023-02-15T11:42:15.479Z,23.63
2023-02-15T11:44:55.096Z,23.97
2023-02-15T11:47:23.376Z,22.47
2023-02-15T11:49:51.623Z,21.23
2023-02-15T11:52:20.721Z,23.17
2023-02-15T11:54:52.166Z,21.73
2023-02-15T11:57:28.575Z,22.17
2023-02-15T12:00:02.420Z,22.23
2023-02-15T12:02:39.484Z,22.80
2023-02-15T12:05:15.185Z,22.67
2023-02-15T12:07:54.132Z,22.70
2023-02-15T12:10:26.292Z,22.67
2023-02-15T12:13:12.228Z,22.00
2023-02-15T12:15:45.647Z,22.50
2023-02-15T12:18:23.348Z,22.13
2023-02-15T12:20:52.190Z,22.20
2023-02-15T12:23:21.798Z,22.57
2023-02-15T12:25:55.669Z,22.23
2023-02-15T12:28:29.057Z,22.20
2023-02-15T12:31:00.699Z,23.13
2023-02-15T12:33:32.385Z,21.80
2023-02-15T12:36:06.504Z,22.43
2023-02-15T12:38:35.468Z,22.03
2023-02-15T12:41:22.064Z,22.47
2023-02-15T12:44:06.211Z,24.43
2023-02-15T12:46:38.280Z,22.80
2023-02-15T12:49:20.470Z,22.13
2023-02-15T12:51:51.441Z,23.07
2023-02-15T12:54:33.211Z,22.80
2023-02-15T12:57:02.362Z,22.20
2023-02-15T12:59:50.648Z,23.10
2023-02-15T13:02:27.271Z,23.53
2023-02-15T13:04:57.550Z,24.37
2023-02-15T13:07:31.890Z,23.83
2023-02-15T13:10:06.939Z,24.77
2023-02-15T13:12:35.309Z,24.47
2023-02-15T13:15:06.448Z,23.67
2023-02-15T13:17:35.743Z,23.00
2023-02-15T13:20:10.773Z,25.27
2023-02-15T13:22:49.099Z,23.63
2023-02-15T13:25:22.062Z,24.00
2023-02-15T13:27:54.606Z,24.17
2023-02-15T13:30:30.047Z,24.47
2023-02-15T13:33:04.376Z,23.73
2023-02-15T13:35:43.232Z,25.33
2023-02-15T13:38:32.805Z,23.83
2023-02-15T13:41:05.249Z,24.87
2023-02-15T13:43:47.839Z,24.30
2023-02-15T13:46:26.095Z,23.60
2023-02-15T13:49:04.489Z,25.67
2023-02-15T13:51:42.633Z,26.03
2023-02-15T13:54:38.691Z,25.43
2023-02-15T13:57:35.290Z,23.70
2023-02-15T14:00:14.809Z,24.03
2023-02-15T14:03:14.479Z,24.07
2023-02-15T14:05:59.593Z,24.40
2023-02-15T14:08:42.227Z,23.63
2023-02-15T14:11:18.160Z,24.23
2023-02-15T14:14:17.582Z,24.37
2023-02-15T14:17:06.763Z,24.00
2023-02-15T14:19:50.921Z,25.27
2023-02-15T14:22:28.038Z,24.13
2023-02-15T14:25:14.502Z,23.93
2023-02-15T14:27:55.210Z,23.43
2023-02-15T14:30:27.631Z,23.77
2023-02-15T14:32:59.292Z,24.23
2023-02-15T14:35:31.327Z,23.97
2023-02-15T14:38:08.720Z,25.03
2023-02-15T14:41:03.619Z,23.97
2023-02-15T14:43:45.834Z,23.50
2023-02-15T14:46:23.374Z,24.10
2023-02-15T14:48:54.195Z,23.57
2023-02-15T14:51:57.658Z,23.97
2023-02-15T14:55:01.605Z,23.67
2023-02-15T14:57:35.754Z,23.60
2023-02-15T15:00:40.173Z,23.50
2023-02-15T15:03:25.315Z,23.03
2023-02-15T15:05:55.863Z,22.30
2023-02-15T15:08:30.215Z,22.80
2023-02-15T15:11:43.429Z,22.87
2023-02-15T15:14:33.684Z,22.87
2023-02-15T15:17:04.806Z,22.30
2023-02-15T15:20:14.445Z,21.37
2023-02-15T15:22:46.179Z,21.80
2023-02-15T15:25:45.790Z,22.10
2023-02-15T15:28:47.076Z,21.33
2023-02-15T15:31:22.110Z,20.07
2023-02-15T15:34:22.953Z,20.17
2023-02-15T15:37:37.438Z,19.83
2023-02-15T15:40:42.674Z,21.60
2023-02-15T15:43:42.747Z,20.63
2023-02-15T15:46:44.515Z,21.03
2023-02-15T15:49:17.224Z,20.50
2023-02-15T15:52:16.129Z,20.97
2023-02-15T15:54:45.439Z,20.13
2023-02-15T15:57:24.174Z,19.90
2023-02-15T15:59:52.788Z,21.23
2023-02-15T16:02:21.052Z,21.27
2023-02-15T16:04:49.688Z,22.00
2023-02-15T16:07:28.765Z,18.90
2023-02-15T16:09:59.256Z,21.13
2023-02-15T16:12:29.424Z,24.57
2023-02-15T16:15:04.528Z,25.20
2023-02-15T16:17:34.616Z,25.23
2023-02-15T16:20:07.180Z,26.10
2023-02-15T16:22:41.133Z,25.87
2023-02-15T16:25:43.083Z,26.83
2023-02-15T16:28:14.384Z,25.23
2023-02-15T16:30:45.406Z,25.10
2023-02-15T16:33:15.857Z,26.17
2023-02-15T16:35:56.638Z,25.00
2023-02-15T16:38:46.567Z,24.90
2023-02-15T16:41:17.321Z,24.00
2023-02-15T16:43:50.941Z,26.00
2023-02-15T16:46:28.535Z,24.27
2023-02-15T16:48:59.776Z,25.77
2023-02-15T16:51:32.193Z,25.50
2023-02-15T16:54:09.132Z,25.43
2023-02-15T16:56:38.290Z,25.43
2023-02-15T16:59:06.593Z,25.77
2023-02-15T17:01:35.542Z,24.80
2023-02-15T17:04:14.187Z,25.47
2023-02-15T17:06:42.829Z,24.80
2023-02-15T17:09:20.569Z,25.07
2023-02-15T17:11:48.896Z,24.73
2023-02-15T17:14:23.943Z,25.40
2023-02-15T17:16:54.681Z,24.53
2023-02-15T17:19:27.171Z,26.13
2023-02-15T17:21:57.397Z,26.87
2023-02-15T17:24:37.042Z,26.33
2023-02-15T17:27:12.646Z,26.33
2023-02-15T17:29:48.092Z,24.90
2023-02-15T17:32:20.099Z,25.87
2023-02-15T17:35:01.097Z,25.67
2023-02-15T17:37:45.225Z,25.10
2023-02-15T17:40:22.242Z,25.07
2023-02-15T17:42:52.510Z,26.07
2023-02-15T17:45:23.175Z,26.77
2023-02-15T17:47:52.212Z,27.63
2023-02-15T17:50:23.465Z,28.23
2023-02-15T17:52:52.964Z,25.27
2023-02-15T17:55:39.057Z,26.50
2023-02-15T17:58:09.879Z,27.07
2023-02-15T18:00:59.623Z,26.70
2023-02-15T18:03:53.610Z,27.10
2023-02-15T18:06:39.364Z,27.37
2023-02-15T18:09:25.422Z,28.10
2023-02-15T18:11:55.440Z,28.57
2023-02-15T18:14:23.795Z,27.37
2023-02-15T18:16:52.486Z,28.47
2023-02-15T18:19:23.227Z,28.43
2023-02-15T18:21:52.786Z,29.37
2023-02-15T18:24:24.253Z,28.90
2023-02-15T18:26:54.947Z,31.00
2023-02-15T18:29:23.319Z,31.13
2023-02-15T18:31:55.989Z,30.47
2023-02-15T18:34:28.542Z,28.17
2023-02-15T18:36:58.410Z,29.63
2023-02-15T18:39:31.293Z,28.57
2023-02-15T18:42:01.641Z,30.13
2023-02-15T18:44:33.069Z,30.33
2023-02-15T18:47:01.416Z,31.33
2023-02-15T18:49:29.787Z,31.87
2023-02-15T18:51:58.055Z,31.00
2023-02-15T18:54:28.924Z,32.43
2023-02-15T18:57:00.109Z,31.03
2023-02-15T18:59:31.202Z,31.00
2023-02-15T19:02:13.722Z,30.03
2023-02-15T19:04:42.918Z,30.70
2023-02-15T19:07:23.142Z,31.40
2023-02-15T19:09:59.932Z,31.67
2023-02-15T19:12:29.644Z,30.30
2023-02-15T19:15:22.221Z,30.97
2023-02-15T19:18:17.020Z,30.30
2023-02-15T19:20:46.993Z,28.97
2023-02-15T19:23:20.091Z,28.90
2023-02-15T19:25:49.494Z,30.13
2023-02-15T19:28:20.111Z,29.20
2023-02-15T19:30:49.825Z,29.03
2023-02-15T19:33:21.290Z,30.33
2023-02-15T19:35:54.209Z,29.27
2023-02-15T19:38:25.408Z,29.70
2023-02-15T19:41:01.068Z,30.70
2023-02-15T19:43:30.196Z,30.40
2023-02-15T19:45:59.973Z,30.93
2023-02-15T19:48:28.308Z,29.43
2023-02-15T19:50:56.979Z,30.30
2023-02-15T19:53:27.579Z,30.33
2023-02-15T19:56:21.219Z,31.40
2023-02-15T19:58:52.774Z,30.50
2023-02-15T20:01:23.296Z,31.20
2023-02-15T20:03:52.059Z,31.13
2023-02-15T20:06:33.913Z,31.07
2023-02-15T20:09:02.200Z,31.67
2023-02-15T20:11:30.622Z,30.80
2023-02-15T20:13:58.903Z,31.13
2023-02-15T20:16:31.461Z,32.30
2023-02-15T20:18:59.934Z,32.10
2023-02-15T20:21:28.265Z,31.80
2023-02-15T20:23:56.611Z,31.60
2023-02-15T20:26:29.759Z,31.23
2023-02-15T20:29:06.967Z,30.90
2023-02-15T20:31:36.727Z,32.77
2023-02-15T20:34:15.628Z,33.07
2023-02-15T20:36:44.029Z,32.37
2023-02-15T20:39:16.569Z,33.33
2023-02-15T20:41:48.261Z,33.60
2023-02-15T20:44:29.898Z,32.13
2023-02-15T20:47:01.678Z,32.13
2023-02-15T20:49:57.542Z,33.47
2023-02-15T20:52:25.810Z,34.23
2023-02-15T20:54:54.128Z,31.87
2023-02-15T20:57:29.689Z,33.97
2023-02-15T21:00:00.329Z,34.73
2023-02-15T21:02:30.104Z,33.33
2023-02-15T21:05:30.884Z,33.53
2023-02-15T21:07:59.895Z,32.37
2023-02-15T21:10:30.471Z,34.77
2023-02-15T21:13:01.550Z,33.93
2023-02-15T21:15:32.780Z,35.33
2023-02-15T21:18:04.280Z,34.40
2023-02-15T21:20:34.463Z,33.80
2023-02-15T21:23:05.919Z,34.10
2023-02-15T21:25:37.216Z,35.83
2023-02-15T21:28:08.529Z,34.60
2023-02-15T21:30:36.886Z,35.17
2023-02-15T21:33:06.711Z,34.13
2023-02-15T21:35:38.399Z,33.73
2023-02-15T21:38:07.947Z,34.87
2023-02-15T21:40:36.251Z,33.80
2023-02-15T21:43:32.271Z,35.90
2023-02-15T21:46:24.153Z,34.20
2023-02-15T21:48:53.744Z,33.97
2023-02-15T21:51:42.384Z,34.17
2023-02-15T21:54:28.592Z,33.07
2023-02-15T21:56:57.140Z,33.47
2023-02-15T21:59:28.564Z,32.90
2023-02-15T22:01:57.047Z,35.30
2023-02-15T22:04:29.278Z,33.57
2023-02-15T22:06:58.084Z,33.50
2023-02-15T22:09:28.023Z,33.97
2023-02-15T22:11:56.636Z,36.53
2023-02-15T22:14:37.967Z,33.37
2023-02-15T22:17:15.956Z,34.20
2023-02-15T22:19:47.239Z,33.43
2023-02-15T22:22:16.231Z,34.83
2023-02-15T22:24:45.742Z,33.30
2023-02-15T22:27:19.791Z,35.47
2023-02-15T22:29:48.702Z,35.07
2023-02-15T22:32:19.224Z,34.43
2023-02-15T22:34:48.960Z,34.90
2023-02-15T22:37:17.323Z,34.17
2023-02-15T22:39:45.556Z,34.27
2023-02-15T22:42:24.563Z,36.33
2023-02-15T22:44:57.339Z,34.10
2023-02-15T22:47:27.814Z,34.80
2023-02-15T22:49:57.405Z,34.20
2023-02-15T22:52:26.053Z,33.87
2023-02-15T22:54:54.272Z,35.10
2023-02-15T22:57:30.212Z,34.47
2023-02-15T22:59:59.408Z,33.33
2023-02-15T23:02:28.070Z,33.77
2023-02-15T23:04:57.701Z,34.30
2023-02-15T23:07:26.058Z,35.53
2023-02-15T23:09:54.308Z,34.37
2023-02-15T23:12:27.482Z,35.40
2023-02-15T23:14:56.604Z,35.10
2023-02-15T23:17:24.823Z,34.33
2023-02-15T23:19:53.052Z,34.70
2023-02-15T23:22:22.685Z,33.63
2023-02-15T23:24:53.720Z,33.70
2023-02-15T23:27:39.354Z,34.40
2023-02-15T23:30:14.124Z,33.93
2023-02-15T23:32:42.472Z,35.30
2023-02-15T23:35:15.246Z,34.50
2023-02-15T23:37:44.872Z,35.60
2023-02-15T23:40:32.776Z,34.57
2023-02-15T23:43:01.097Z,35.23
2023-02-15T23:45:29.726Z,35.10
2023-02-15T23:48:15.804Z,35.77
2023-02-15T23:50:44.083Z,35.93
2023-02-15T23:53:13.652Z,35.90
2023-02-15T23:55:44.492Z,37.43
2023-02-15T23:58:17.192Z,36.27
